Time,TemperatureF,DewpointF,PressureIn,WindDirection,WindDirectionDegrees,WindSpeedMPH,WindSpeedGustMPH,Humidity,HourlyPrecipIn,Conditions,Clouds,dailyrainin,SoftwareType,DateUTC
2013-04-01 00:00:00,41.5,33.0,29.58,WNW,292,6.0,-999.0,72,-99.99,,,0.00,weatherlink.com 1.10,2013-04-01 04:00:00,
2013-04-01 00:15:00,40.9,33.0,29.59,WNW,295,4.0,-999.0,74,-99.99,,,0.00,weatherlink.com 1.10,2013-04-01 04:15:00,
2013-04-01 00:30:00,40.3,32.0,29.59,WNW,295,8.0,-999.0,72,-99.99,,,0.00,weatherlink.com 1.10,2013-04-01 04:30:00,
2013-04-01 00:45:00,38.9,30.0,29.60,West,278,5.0,-999.0,70,-99.99,,,0.00,weatherlink.com 1.10,2013-04-01 04:45:00,
2013-04-01 01:00:00,38.0,29.0,29.60,NW,307,8.0,-999.0,70,-99.99,,,0.00,weatherlink.com 1.10,2013-04-01 05:00:00,
2013-04-01 01:15:00,37.3,28.0,29.60,WNW,296,4.0,-999.0,70,-99.99,,,0.00,weatherlink.com 1.10,2013-04-01 05:15:00,
2013-04-01 01:30:00,36.6,28.0,29.61,WNW,289,14.0,-999.0,70,-99.99,,,0.00,weatherlink.com 1.10,2013-04-01 05:30:00,
2013-04-01 01:45:00,33.4,28.0,29.63,WNW,297,6.0,-999.0,79,-99.99,,,0.00,weatherlink.com 1.10,2013-04-01 05:45:00,
2013-04-01 02:00:00,32.2,29.0,29.64,WNW,300,6.0,-999.0,86,-99.99,,,0.00,weatherlink.com 1.10,2013-04-01 06:00:00,
2013-04-01 02:15:00,32.0,29.0,29.64,WNW,295,0.0,-999.0,87,-99.99,,,0.00,weatherlink.com 1.10,2013-04-01 06:15:00,
2013-04-01 02:30:00,32.2,29.0,29.64,NNW,340,9.0,-999.0,87,-99.99,,,0.00,weatherlink.com 1.10,2013-04-01 06:30:00,
2013-04-01 02:45:00,32.2,28.0,29.64,WNW,297,2.0,-999.0,83,-99.99,,,0.00,weatherlink.com 1.10,2013-04-01 06:45:00,
2013-04-01 03:00:00,32.2,27.0,29.65,NW,311,3.0,-999.0,81,-99.99,,,0.00,weatherlink.com 1.10,2013-04-01 07:00:00,
2013-04-01 03:15:00,32.2,26.0,29.66,NW,308,4.0,-999.0,79,-99.99,,,0.00,weatherlink.com 1.10,2013-04-01 07:15:00,
2013-04-01 03:30:00,31.6,26.0,29.67,NW,309,5.0,-999.0,81,-99.99,,,0.00,weatherlink.com 1.10,2013-04-01 07:30:00,
2013-04-01 03:45:00,30.8,26.0,29.68,WNW,292,5.0,-999.0,83,-99.99,,,0.00,weatherlink.com 1.10,2013-04-01 07:45:00,
2013-04-01 04:00:00,31.0,26.0,29.68,NNW,330,7.0,-999.0,82,-99.99,,,0.00,weatherlink.com 1.10,2013-04-01 08:00:00,
2013-04-01 04:15:00,30.8,24.0,29.68,NW,304,4.0,-999.0,76,-99.99,,,0.00,weatherlink.com 1.10,2013-04-01 08:15:00,
2013-04-01 04:30:00,30.5,20.0,29.70,NW,317,5.0,-999.0,66,-99.99,,,0.00,weatherlink.com 1.10,2013-04-01 08:30:00,
2013-04-01 04:45:00,29.8,18.0,29.71,NW,306,12.0,-999.0,62,-99.99,,,0.00,weatherlink.com 1.10,2013-04-01 08:45:00,
2013-04-01 05:00:00,29.1,17.0,29.72,WNW,294,5.0,-999.0,60,-99.99,,,0.00,weatherlink.com 1.10,2013-04-01 09:00:00,
2013-04-01 05:15:00,28.6,15.0,29.72,NNW,347,2.0,-999.0,58,-99.99,,,0.00,weatherlink.com 1.10,2013-04-01 09:15:00,
2013-04-01 05:30:00,28.2,15.0,29.74,WNW,298,4.0,-999.0,59,-99.99,,,0.00,weatherlink.com 1.10,2013-04-01 09:30:00,
2013-04-01 05:45:00,27.7,15.0,29.75,NW,310,0.0,-999.0,60,-99.99,,,0.00,weatherlink.com 1.10,2013-04-01 09:45:00,
2013-04-01 06:00:00,27.4,16.0,29.76,WNW,298,0.0,-999.0,62,-99.99,,,0.00,weatherlink.com 1.10,2013-04-01 10:00:00,
2013-04-01 06:15:00,27.1,16.0,29.77,WNW,290,0.0,-999.0,62,-99.99,,,0.00,weatherlink.com 1.10,2013-04-01 10:15:00,
2013-04-01 06:30:00,27.1,16.0,29.77,WNW,296,3.0,-999.0,63,-99.99,,,0.00,weatherlink.com 1.10,2013-04-01 10:30:00,
2013-04-01 06:45:00,26.8,16.0,29.78,WNW,296,0.0,-999.0,65,-99.99,,,0.00,weatherlink.com 1.10,2013-04-01 10:45:00,
2013-04-01 07:00:00,26.7,16.0,29.79,WNW,296,0.0,-999.0,65,-99.99,,,0.00,weatherlink.com 1.10,2013-04-01 11:00:00,
2013-04-01 07:15:00,26.8,16.0,29.80,West,271,4.0,-999.0,63,-99.99,,,0.00,weatherlink.com 1.10,2013-04-01 11:15:00,
2013-04-01 07:30:00,27.0,16.0,29.80,NW,312,3.0,-999.0,64,-99.99,,,0.00,weatherlink.com 1.10,2013-04-01 11:30:00,
2013-04-01 07:45:00,27.0,16.0,29.81,WNW,298,1.0,-999.0,64,-99.99,,,0.00,weatherlink.com 1.10,2013-04-01 11:45:00,
2013-04-01 08:00:00,27.6,17.0,29.82,WNW,300,2.0,-999.0,64,-99.99,,,0.00,weatherlink.com 1.10,2013-04-01 12:00:00,
2013-04-01 08:15:00,27.3,18.0,29.83,WNW,285,6.0,-999.0,68,-99.99,,,0.00,weatherlink.com 1.10,2013-04-01 12:15:00,
2013-04-01 08:30:00,26.7,20.0,29.83,WNW,301,0.0,-999.0,75,-99.99,,,0.00,weatherlink.com 1.10,2013-04-01 12:30:00,
2013-04-01 08:45:00,26.8,19.0,29.84,WNW,297,7.0,-999.0,73,-99.99,,,0.00,weatherlink.com 1.10,2013-04-01 12:45:00,
2013-04-01 09:00:00,27.4,19.0,29.84,WNW,301,7.0,-999.0,71,-99.99,,,0.00,weatherlink.com 1.10,2013-04-01 13:00:00,
2013-04-01 09:15:00,27.4,19.0,29.85,WNW,292,3.0,-999.0,71,-99.99,,,0.00,weatherlink.com 1.10,2013-04-01 13:15:00,
2013-04-01 09:30:00,28.9,19.0,29.85,NW,321,6.0,-999.0,66,-99.99,,,0.00,weatherlink.com 1.10,2013-04-01 13:30:00,
2013-04-01 09:45:00,28.6,18.0,29.86,WNW,294,9.0,-999.0,65,-99.99,,,0.00,weatherlink.com 1.10,2013-04-01 13:45:00,
2013-04-01 10:00:00,28.0,16.0,29.86,WNW,292,11.0,-999.0,61,-99.99,,,0.00,weatherlink.com 1.10,2013-04-01 14:00:00,
2013-04-01 10:15:00,28.0,20.0,29.87,West,265,5.0,-999.0,72,-99.99,,,0.00,weatherlink.com 1.10,2013-04-01 14:15:00,
2013-04-01 10:30:00,29.1,15.0,29.87,NW,304,7.0,-999.0,56,-99.99,,,0.00,weatherlink.com 1.10,2013-04-01 14:30:00,
2013-04-01 10:45:00,30.7,15.0,29.87,NW,316,5.0,-999.0,53,-99.99,,,0.00,weatherlink.com 1.10,2013-04-01 14:45:00,
2013-04-01 11:00:00,30.2,14.0,29.88,NW,309,6.0,-999.0,52,-99.99,,,0.00,weatherlink.com 1.10,2013-04-01 15:00:00,
2013-04-01 11:15:00,30.1,15.0,29.88,WNW,301,11.0,-999.0,53,-99.99,,,0.00,weatherlink.com 1.10,2013-04-01 15:15:00,
2013-04-01 11:30:00,31.6,14.0,29.89,WNW,301,6.0,-999.0,48,-99.99,,,0.00,weatherlink.com 1.10,2013-04-01 15:30:00,
2013-04-01 11:45:00,31.1,13.0,29.89,WNW,299,4.0,-999.0,48,-99.99,,,0.00,weatherlink.com 1.10,2013-04-01 15:45:00,
2013-04-01 12:00:00,31.4,14.0,29.89,NW,319,7.0,-999.0,49,-99.99,,,0.00,weatherlink.com 1.10,2013-04-01 16:00:00,
2013-04-01 12:15:00,31.9,14.0,29.90,WNW,302,6.0,-999.0,47,-99.99,,,0.00,weatherlink.com 1.10,2013-04-01 16:15:00,
2013-04-01 12:30:00,31.4,12.0,29.91,WNW,290,5.0,-999.0,45,-99.99,,,0.00,weatherlink.com 1.10,2013-04-01 16:30:00,
2013-04-01 12:45:00,31.7,11.0,29.91,West,278,10.0,-999.0,43,-99.99,,,0.00,weatherlink.com 1.10,2013-04-01 16:45:00,
2013-04-01 13:00:00,31.6,13.0,29.91,WNW,282,6.0,-999.0,47,-99.99,,,0.00,weatherlink.com 1.10,2013-04-01 17:00:00,
2013-04-01 13:16:00,31.4,11.0,29.92,WNW,294,11.0,-999.0,42,-99.99,,,0.00,weatherlink.com 1.10,2013-04-01 17:16:00,
2013-04-01 13:30:00,32.0,11.0,29.92,WNW,303,6.0,-999.0,41,-99.99,,,0.00,weatherlink.com 1.10,2013-04-01 17:30:00,
2013-04-01 13:45:00,33.2,11.0,29.92,WNW,296,5.0,-999.0,39,-99.99,,,0.00,weatherlink.com 1.10,2013-04-01 17:45:00,
2013-04-01 14:00:00,33.1,12.0,29.92,NW,311,9.0,-999.0,41,-99.99,,,0.00,weatherlink.com 1.10,2013-04-01 18:00:00,
2013-04-01 14:15:00,35.4,11.0,29.91,NW,307,10.0,-999.0,36,-99.99,,,0.00,weatherlink.com 1.10,2013-04-01 18:15:00,
2013-04-01 14:30:00,33.6,12.0,29.91,West,268,10.0,-999.0,40,-99.99,,,0.00,weatherlink.com 1.10,2013-04-01 18:30:00,
2013-04-01 14:45:00,33.5,11.0,29.92,WNW,300,13.0,-999.0,39,-99.99,,,0.00,weatherlink.com 1.10,2013-04-01 18:45:00,
2013-04-01 15:00:00,33.1,10.0,29.92,WNW,293,7.0,-999.0,38,-99.99,,,0.00,weatherlink.com 1.10,2013-04-01 19:00:00,
2013-04-01 15:16:00,33.4,12.0,29.92,WSW,254,4.0,-999.0,41,-99.99,,,0.00,weatherlink.com 1.10,2013-04-01 19:16:00,
2013-04-01 15:30:00,33.9,12.0,29.92,NW,307,19.0,-999.0,41,-99.99,,,0.00,weatherlink.com 1.10,2013-04-01 19:30:00,
2013-04-01 15:46:00,33.2,12.0,29.92,NW,306,11.0,-999.0,41,-99.99,,,0.00,weatherlink.com 1.10,2013-04-01 19:46:00,
2013-04-01 16:00:00,33.8,11.0,29.93,West,276,3.0,-999.0,39,-99.99,,,0.00,weatherlink.com 1.10,2013-04-01 20:00:00,
2013-04-01 16:15:00,33.9,10.0,29.93,West,265,14.0,-999.0,37,-99.99,,,0.00,weatherlink.com 1.10,2013-04-01 20:15:00,
2013-04-01 16:30:00,34.7,11.0,29.92,WNW,284,6.0,-999.0,37,-99.99,,,0.00,weatherlink.com 1.10,2013-04-01 20:30:00,
2013-04-01 16:45:00,33.8,9.0,29.93,WNW,302,3.0,-999.0,36,-99.99,,,0.00,weatherlink.com 1.10,2013-04-01 20:45:00,
2013-04-01 17:00:00,33.9,11.0,29.93,WNW,284,6.0,-999.0,38,-99.99,,,0.00,weatherlink.com 1.10,2013-04-01 21:00:00,
2013-04-01 17:15:00,33.1,10.0,29.94,WNW,283,10.0,-999.0,39,-99.99,,,0.00,weatherlink.com 1.10,2013-04-01 21:15:00,
2013-04-01 17:30:00,33.1,12.0,29.94,WNW,302,6.0,-999.0,42,-99.99,,,0.00,weatherlink.com 1.10,2013-04-01 21:30:00,
2013-04-01 17:45:00,32.8,12.0,29.94,NW,314,8.0,-999.0,43,-99.99,,,0.00,weatherlink.com 1.10,2013-04-01 21:45:00,
2013-04-01 18:00:00,32.8,13.0,29.95,WNW,295,6.0,-999.0,44,-99.99,,,0.00,weatherlink.com 1.10,2013-04-01 22:00:00,
2013-04-01 18:16:00,31.7,11.0,29.96,WNW,293,5.0,-999.0,43,-99.99,,,0.00,weatherlink.com 1.10,2013-04-01 22:16:00,
2013-04-01 18:31:00,31.3,12.0,29.96,WNW,290,12.0,-999.0,45,-99.99,,,0.00,weatherlink.com 1.10,2013-04-01 22:31:00,
2013-04-01 18:46:00,30.8,12.0,29.96,WNW,282,4.0,-999.0,45,-99.99,,,0.00,weatherlink.com 1.10,2013-04-01 22:46:00,
2013-04-01 19:01:00,31.1,11.0,29.97,NW,306,10.0,-999.0,43,-99.99,,,0.00,weatherlink.com 1.10,2013-04-01 23:01:00,
2013-04-01 19:16:00,30.4,14.0,29.98,NW,305,3.0,-999.0,51,-99.99,,,0.00,weatherlink.com 1.10,2013-04-01 23:16:00,
2013-04-01 19:31:00,29.7,16.0,29.98,WNW,302,6.0,-999.0,56,-99.99,,,0.00,weatherlink.com 1.10,2013-04-01 23:31:00,
2013-04-01 19:46:00,29.7,14.0,29.98,NW,307,7.0,-999.0,52,-99.99,,,0.00,weatherlink.com 1.10,2013-04-01 23:46:00,
2013-04-01 20:01:00,29.1,13.0,29.99,WNW,300,7.0,-999.0,52,-99.99,,,0.00,weatherlink.com 1.10,2013-04-02 00:01:00,
2013-04-01 20:16:00,28.6,13.0,29.99,WNW,298,5.0,-999.0,53,-99.99,,,0.00,weatherlink.com 1.10,2013-04-02 00:16:00,
2013-04-01 20:31:00,28.8,12.0,29.99,WNW,287,5.0,-999.0,49,-99.99,,,0.00,weatherlink.com 1.10,2013-04-02 00:31:00,
2013-04-01 20:46:00,28.6,12.0,30.00,NW,304,9.0,-999.0,50,-99.99,,,0.00,weatherlink.com 1.10,2013-04-02 00:46:00,
2013-04-01 21:16:00,28.5,12.0,30.01,WNW,293,7.0,-999.0,50,-99.99,,,0.00,weatherlink.com 1.10,2013-04-02 01:16:00,
2013-04-01 21:31:00,28.3,11.0,30.01,WNW,293,4.0,-999.0,49,-99.99,,,0.00,weatherlink.com 1.10,2013-04-02 01:31:00,
2013-04-01 21:46:00,28.3,12.0,30.01,NW,304,5.0,-999.0,51,-99.99,,,0.00,weatherlink.com 1.10,2013-04-02 01:46:00,
2013-04-01 22:01:00,28.2,13.0,30.01,WNW,303,4.0,-999.0,53,-99.99,,,0.00,weatherlink.com 1.10,2013-04-02 02:01:00,
2013-04-01 22:16:00,27.9,12.0,30.02,West,267,4.0,-999.0,52,-99.99,,,0.00,weatherlink.com 1.10,2013-04-02 02:16:00,
2013-04-01 22:31:00,27.6,13.0,30.02,WNW,296,5.0,-999.0,54,-99.99,,,0.00,weatherlink.com 1.10,2013-04-02 02:31:00,
2013-04-01 22:46:00,27.1,13.0,30.02,West,272,2.0,-999.0,55,-99.99,,,0.00,weatherlink.com 1.10,2013-04-02 02:46:00,
2013-04-01 23:01:00,26.8,13.0,30.02,West,271,3.0,-999.0,56,-99.99,,,0.00,weatherlink.com 1.10,2013-04-02 03:01:00,
2013-04-01 23:16:00,26.7,13.0,30.02,WNW,282,4.0,-999.0,56,-99.99,,,0.00,weatherlink.com 1.10,2013-04-02 03:16:00,
2013-04-01 23:31:00,26.4,13.0,30.02,West,270,0.0,-999.0,58,-99.99,,,0.00,weatherlink.com 1.10,2013-04-02 03:31:00,
2013-04-01 23:46:00,26.1,13.0,30.02,West,276,3.0,-999.0,59,-99.99,,,0.00,weatherlink.com 1.10,2013-04-02 03:46:00,